sensor_id;sensor_type;location;lat;lon;timestamp;temperature;humidity
22106;DHT22;11219;51.486;6.950;2022-08-11T00:00:12;22.40;52.10
22106;DHT22;11219;51.486;6.950;2022-08-11T00:02:41;22.30;52.20
22106;DHT22;11219;51.486;6.950;2022-08-11T00:05:11;22.40;52.70
22106;DHT22;11219;51.486;6.950;2022-08-11T00:07:43;22.20;52.60
22106;DHT22;11219;51.486;6.950;2022-08-11T00:10:13;22.10;52.70
22106;DHT22;11219;51.486;6.950;2022-08-11T00:12:41;22.10;52.90
22106;DHT22;11219;51.486;6.950;2022-08-11T00:15:10;22.20;53.20
22106;DHT22;11219;51.486;6.950;2022-08-11T00:17:37;22.10;53.30
22106;DHT22;11219;51.486;6.950;2022-08-11T00:20:07;21.80;53.30
22106;DHT22;11219;51.486;6.950;2022-08-11T00:22:36;21.70;53.60
22106;DHT22;11219;51.486;6.950;2022-08-11T00:25:09;21.70;53.80
22106;DHT22;11219;51.486;6.950;2022-08-11T00:27:39;21.60;54.00
22106;DHT22;11219;51.486;6.950;2022-08-11T00:30:08;21.50;54.10
22106;DHT22;11219;51.486;6.950;2022-08-11T00:32:37;21.50;55.00
22106;DHT22;11219;51.486;6.950;2022-08-11T00:35:07;21.40;54.60
22106;DHT22;11219;51.486;6.950;2022-08-11T00:37:37;21.30;54.60
22106;DHT22;11219;51.486;6.950;2022-08-11T00:40:07;21.30;54.90
22106;DHT22;11219;51.486;6.950;2022-08-11T00:42:53;21.20;55.10
22106;DHT22;11219;51.486;6.950;2022-08-11T00:45:26;21.10;55.30
22106;DHT22;11219;51.486;6.950;2022-08-11T00:48:02;21.10;55.50
22106;DHT22;11219;51.486;6.950;2022-08-11T00:50:40;21.10;55.60
22106;DHT22;11219;51.486;6.950;2022-08-11T00:53:35;21.00;55.70
22106;DHT22;11219;51.486;6.950;2022-08-11T00:59:30;20.90;56.00
22106;DHT22;11219;51.486;6.950;2022-08-11T01:02:16;20.80;56.20
22106;DHT22;11219;51.486;6.950;2022-08-11T01:05:13;20.80;56.40
22106;DHT22;11219;51.486;6.950;2022-08-11T01:08:39;20.80;56.60
22106;DHT22;11219;51.486;6.950;2022-08-11T01:11:25;20.70;56.60
22106;DHT22;11219;51.486;6.950;2022-08-11T01:20:41;20.60;57.10
22106;DHT22;11219;51.486;6.950;2022-08-11T01:23:38;20.50;57.30
22106;DHT22;11219;51.486;6.950;2022-08-11T01:26:51;20.40;57.40
22106;DHT22;11219;51.486;6.950;2022-08-11T01:29:55;20.40;57.60
22106;DHT22;11219;51.486;6.950;2022-08-11T01:42:04;20.20;58.20
22106;DHT22;11219;51.486;6.950;2022-08-11T01:45:05;20.40;58.30
22106;DHT22;11219;51.486;6.950;2022-08-11T01:47:37;20.20;58.30
22106;DHT22;11219;51.486;6.950;2022-08-11T01:50:34;20.20;58.40
22106;DHT22;11219;51.486;6.950;2022-08-11T01:53:15;20.60;58.60
22106;DHT22;11219;51.486;6.950;2022-08-11T01:55:52;20.20;58.60
22106;DHT22;11219;51.486;6.950;2022-08-11T01:58:28;20.10;58.70
22106;DHT22;11219;51.486;6.950;2022-08-11T02:01:04;20.10;58.70
22106;DHT22;11219;51.486;6.950;2022-08-11T02:03:38;20.10;58.80
22106;DHT22;11219;51.486;6.950;2022-08-11T02:06:13;20.20;58.80
22106;DHT22;11219;51.486;6.950;2022-08-11T02:09:07;20.30;58.60
22106;DHT22;11219;51.486;6.950;2022-08-11T02:11:39;20.40;58.40
22106;DHT22;11219;51.486;6.950;2022-08-11T02:14:20;20.50;58.20
22106;DHT22;11219;51.486;6.950;2022-08-11T02:17:01;20.60;58.30
22106;DHT22;11219;51.486;6.950;2022-08-11T02:19:40;20.70;58.30
22106;DHT22;11219;51.486;6.950;2022-08-11T02:22:34;20.90;58.20
22106;DHT22;11219;51.486;6.950;2022-08-11T02:25:29;20.70;58.00
22106;DHT22;11219;51.486;6.950;2022-08-11T04:16:06;18.70;62.40
22106;DHT22;11219;51.486;6.950;2022-08-11T04:22:07;18.90;63.30
22106;DHT22;11219;51.486;6.950;2022-08-11T04:28:03;19.00;63.40
22106;DHT22;11219;51.486;6.950;2022-08-11T04:30:55;19.00;63.50
22106;DHT22;11219;51.486;6.950;2022-08-11T04:33:42;19.00;63.60
22106;DHT22;11219;51.486;6.950;2022-08-11T04:36:34;19.00;63.80
22106;DHT22;11219;51.486;6.950;2022-08-11T04:39:35;18.90;63.80
22106;DHT22;11219;51.486;6.950;2022-08-11T04:42:39;18.90;64.00
22106;DHT22;11219;51.486;6.950;2022-08-11T04:45:48;18.90;64.10
22106;DHT22;11219;51.486;6.950;2022-08-11T04:52:01;18.80;64.40
22106;DHT22;11219;51.486;6.950;2022-08-11T04:55:06;18.80;64.50
22106;DHT22;11219;51.486;6.950;2022-08-11T04:58:08;18.80;64.60
22106;DHT22;11219;51.486;6.950;2022-08-11T05:00:59;18.90;64.60
22106;DHT22;11219;51.486;6.950;2022-08-11T05:07:35;18.90;64.70
22106;DHT22;11219;51.486;6.950;2022-08-11T05:10:20;19.00;64.80
22106;DHT22;11219;51.486;6.950;2022-08-11T05:12:52;19.00;64.80
22106;DHT22;11219;51.486;6.950;2022-08-11T05:15:34;19.10;64.90
22106;DHT22;11219;51.486;6.950;2022-08-11T05:18:25;19.10;64.80
22106;DHT22;11219;51.486;6.950;2022-08-11T05:21:13;19.10;64.80
22106;DHT22;11219;51.486;6.950;2022-08-11T05:24:11;19.20;64.90
22106;DHT22;11219;51.486;6.950;2022-08-11T05:27:00;19.20;64.80
22106;DHT22;11219;51.486;6.950;2022-08-11T05:29:50;19.30;64.80
22106;DHT22;11219;51.486;6.950;2022-08-11T05:32:41;19.30;64.80
22106;DHT22;11219;51.486;6.950;2022-08-11T05:35:30;19.40;64.80
22106;DHT22;11219;51.486;6.950;2022-08-11T05:37:58;19.40;64.70
22106;DHT22;11219;51.486;6.950;2022-08-11T05:40:52;19.50;64.70
22106;DHT22;11219;51.486;6.950;2022-08-11T05:43:41;19.50;64.70
22106;DHT22;11219;51.486;6.950;2022-08-11T05:46:27;19.60;64.80
22106;DHT22;11219;51.486;6.950;2022-08-11T05:49:13;19.70;64.70
22106;DHT22;11219;51.486;6.950;2022-08-11T05:51:57;19.80;64.50
22106;DHT22;11219;51.486;6.950;2022-08-11T05:54:43;19.80;64.30
22106;DHT22;11219;51.486;6.950;2022-08-11T05:57:31;19.90;64.10
22106;DHT22;11219;51.486;6.950;2022-08-11T06:00:00;20.10;64.10
22106;DHT22;11219;51.486;6.950;2022-08-11T06:02:29;20.10;63.90
22106;DHT22;11219;51.486;6.950;2022-08-11T06:04:57;20.20;63.60
22106;DHT22;11219;51.486;6.950;2022-08-11T06:07:29;20.30;64.40
22106;DHT22;11219;51.486;6.950;2022-08-11T06:09:58;20.40;63.30
22106;DHT22;11219;51.486;6.950;2022-08-11T06:12:28;20.50;63.20
22106;DHT22;11219;51.486;6.950;2022-08-11T06:15:02;20.50;62.90
22106;DHT22;11219;51.486;6.950;2022-08-11T06:17:32;20.60;62.80
22106;DHT22;11219;51.486;6.950;2022-08-11T06:20:03;20.80;62.60
22106;DHT22;11219;51.486;6.950;2022-08-11T06:22:31;20.90;62.30
22106;DHT22;11219;51.486;6.950;2022-08-11T06:25:00;21.20;61.80
22106;DHT22;11219;51.486;6.950;2022-08-11T06:27:30;21.60;61.00
22106;DHT22;11219;51.486;6.950;2022-08-11T06:29:59;21.80;60.50
22106;DHT22;11219;51.486;6.950;2022-08-11T06:32:29;23.70;59.00
22106;DHT22;11219;51.486;6.950;2022-08-11T06:35:09;26.50;55.20
22106;DHT22;11219;51.486;6.950;2022-08-11T06:37:45;29.30;51.50
22106;DHT22;11219;51.486;6.950;2022-08-11T06:40:25;31.40;48.90
22106;DHT22;11219;51.486;6.950;2022-08-11T06:42:59;33.20;46.80
22106;DHT22;11219;51.486;6.950;2022-08-11T06:45:33;34.60;44.90
22106;DHT22;11219;51.486;6.950;2022-08-11T06:48:03;35.80;43.30
22106;DHT22;11219;51.486;6.950;2022-08-11T06:50:31;36.40;42.00
22106;DHT22;11219;51.486;6.950;2022-08-11T06:53:18;37.20;41.10
22106;DHT22;11219;51.486;6.950;2022-08-11T06:55:47;37.80;40.00
22106;DHT22;11219;51.486;6.950;2022-08-11T06:58:34;38.30;38.90
22106;DHT22;11219;51.486;6.950;2022-08-11T07:01:29;38.60;38.30
22106;DHT22;11219;51.486;6.950;2022-08-11T07:04:05;39.20;37.20
22106;DHT22;11219;51.486;6.950;2022-08-11T07:06:40;39.60;36.70
22106;DHT22;11219;51.486;6.950;2022-08-11T07:09:32;39.80;35.80
22106;DHT22;11219;51.486;6.950;2022-08-11T07:12:37;39.90;35.30
22106;DHT22;11219;51.486;6.950;2022-08-11T07:15:27;40.10;35.10
22106;DHT22;11219;51.486;6.950;2022-08-11T07:18:13;40.20;34.30
22106;DHT22;11219;51.486;6.950;2022-08-11T07:21:11;40.30;34.00
22106;DHT22;11219;51.486;6.950;2022-08-11T07:23:59;40.60;33.70
22106;DHT22;11219;51.486;6.950;2022-08-11T07:26:49;40.60;33.30
22106;DHT22;11219;51.486;6.950;2022-08-11T07:29:34;40.90;32.80
22106;DHT22;11219;51.486;6.950;2022-08-11T07:32:10;40.90;32.70
22106;DHT22;11219;51.486;6.950;2022-08-11T07:34:46;40.90;32.00
22106;DHT22;11219;51.486;6.950;2022-08-11T07:37:16;40.90;31.50
22106;DHT22;11219;51.486;6.950;2022-08-11T07:39:46;41.00;31.60
22106;DHT22;11219;51.486;6.950;2022-08-11T07:42:15;41.10;31.20
22106;DHT22;11219;51.486;6.950;2022-08-11T07:44:45;41.20;31.10
22106;DHT22;11219;51.486;6.950;2022-08-11T07:47:30;41.30;30.60
22106;DHT22;11219;51.486;6.950;2022-08-11T07:50:16;41.20;30.40
22106;DHT22;11219;51.486;6.950;2022-08-11T07:53:02;40.80;30.20
22106;DHT22;11219;51.486;6.950;2022-08-11T07:55:30;40.60;30.50
22106;DHT22;11219;51.486;6.950;2022-08-11T07:57:59;40.50;30.10
22106;DHT22;11219;51.486;6.950;2022-08-11T08:00:47;40.20;30.00
22106;DHT22;11219;51.486;6.950;2022-08-11T08:03:33;40.50;30.20
22106;DHT22;11219;51.486;6.950;2022-08-11T08:06:19;40.60;29.80
22106;DHT22;11219;51.486;6.950;2022-08-11T08:09:06;40.60;29.90
22106;DHT22;11219;51.486;6.950;2022-08-11T08:11:52;40.60;29.70
22106;DHT22;11219;51.486;6.950;2022-08-11T08:14:37;40.60;29.80
22106;DHT22;11219;51.486;6.950;2022-08-11T08:17:21;41.00;29.80
22106;DHT22;11219;51.486;6.950;2022-08-11T08:20:10;41.00;29.60
22106;DHT22;11219;51.486;6.950;2022-08-11T08:22:39;41.30;29.50
22106;DHT22;11219;51.486;6.950;2022-08-11T08:25:07;41.60;29.30
22106;DHT22;11219;51.486;6.950;2022-08-11T08:27:35;41.90;29.20
22106;DHT22;11219;51.486;6.950;2022-08-11T08:30:04;42.20;29.10
22106;DHT22;11219;51.486;6.950;2022-08-11T08:32:50;42.30;28.70
22106;DHT22;11219;51.486;6.950;2022-08-11T08:35:18;42.30;28.80
22106;DHT22;11219;51.486;6.950;2022-08-11T08:37:48;42.30;28.60
22106;DHT22;11219;51.486;6.950;2022-08-11T08:40:15;42.30;28.40
22106;DHT22;11219;51.486;6.950;2022-08-11T08:42:48;42.00;28.70
22106;DHT22;11219;51.486;6.950;2022-08-11T08:45:18;42.20;28.60
22106;DHT22;11219;51.486;6.950;2022-08-11T08:47:47;42.20;28.60
22106;DHT22;11219;51.486;6.950;2022-08-11T08:50:20;42.00;28.30
22106;DHT22;11219;51.486;6.950;2022-08-11T08:52:53;41.70;28.20
22106;DHT22;11219;51.486;6.950;2022-08-11T08:55:22;41.70;28.30
22106;DHT22;11219;51.486;6.950;2022-08-11T08:57:51;41.50;28.40
22106;DHT22;11219;51.486;6.950;2022-08-11T09:00:20;41.60;28.40
22106;DHT22;11219;51.486;6.950;2022-08-11T09:02:48;41.90;28.40
22106;DHT22;11219;51.486;6.950;2022-08-11T09:05:16;42.10;28.30
22106;DHT22;11219;51.486;6.950;2022-08-11T09:07:46;42.30;28.10
22106;DHT22;11219;51.486;6.950;2022-08-11T09:10:18;42.40;28.20
22106;DHT22;11219;51.486;6.950;2022-08-11T09:12:46;42.50;28.00
22106;DHT22;11219;51.486;6.950;2022-08-11T09:15:14;42.30;27.70
22106;DHT22;11219;51.486;6.950;2022-08-11T09:17:44;42.00;27.70
22106;DHT22;11219;51.486;6.950;2022-08-11T09:20:13;41.90;27.80
22106;DHT22;11219;51.486;6.950;2022-08-11T09:22:43;41.80;27.60
22106;DHT22;11219;51.486;6.950;2022-08-11T09:25:31;41.60;27.80
22106;DHT22;11219;51.486;6.950;2022-08-11T09:28:18;41.60;27.70
22106;DHT22;11219;51.486;6.950;2022-08-11T09:30:47;41.60;27.60
22106;DHT22;11219;51.486;6.950;2022-08-11T09:33:18;41.40;27.50
22106;DHT22;11219;51.486;6.950;2022-08-11T09:35:47;41.10;27.60
22106;DHT22;11219;51.486;6.950;2022-08-11T09:38:17;40.90;27.80
22106;DHT22;11219;51.486;6.950;2022-08-11T09:41:04;40.40;27.90
22106;DHT22;11219;51.486;6.950;2022-08-11T09:43:32;39.30;28.10
22106;DHT22;11219;51.486;6.950;2022-08-11T09:46:24;38.40;28.50
22106;DHT22;11219;51.486;6.950;2022-08-11T09:48:52;37.50;29.30
22106;DHT22;11219;51.486;6.950;2022-08-11T09:51:21;36.60;29.70
22106;DHT22;11219;51.486;6.950;2022-08-11T09:53:49;35.90;30.00
22106;DHT22;11219;51.486;6.950;2022-08-11T09:56:19;35.30;30.60
22106;DHT22;11219;51.486;6.950;2022-08-11T09:59:05;34.70;31.00
22106;DHT22;11219;51.486;6.950;2022-08-11T10:01:35;34.30;31.10
22106;DHT22;11219;51.486;6.950;2022-08-11T10:04:10;33.90;31.20
22106;DHT22;11219;51.486;6.950;2022-08-11T10:06:40;33.60;31.20
22106;DHT22;11219;51.486;6.950;2022-08-11T10:09:25;33.20;31.30
22106;DHT22;11219;51.486;6.950;2022-08-11T10:11:56;32.90;32.10
22106;DHT22;11219;51.486;6.950;2022-08-11T10:14:25;32.80;32.40
22106;DHT22;11219;51.486;6.950;2022-08-11T10:17:12;32.60;32.50
22106;DHT22;11219;51.486;6.950;2022-08-11T10:19:41;32.40;32.70
22106;DHT22;11219;51.486;6.950;2022-08-11T10:22:09;32.30;32.60
22106;DHT22;11219;51.486;6.950;2022-08-11T10:24:55;32.20;32.30
22106;DHT22;11219;51.486;6.950;2022-08-11T10:27:42;32.30;32.60
22106;DHT22;11219;51.486;6.950;2022-08-11T10:30:10;32.20;32.80
22106;DHT22;11219;51.486;6.950;2022-08-11T10:32:56;32.20;32.80
22106;DHT22;11219;51.486;6.950;2022-08-11T10:35:42;32.30;33.00
22106;DHT22;11219;51.486;6.950;2022-08-11T10:38:12;32.20;32.80
22106;DHT22;11219;51.486;6.950;2022-08-11T10:40:43;32.10;32.90
22106;DHT22;11219;51.486;6.950;2022-08-11T10:43:12;32.20;33.20
22106;DHT22;11219;51.486;6.950;2022-08-11T10:45:41;32.30;33.20
22106;DHT22;11219;51.486;6.950;2022-08-11T10:48:27;32.30;33.00
22106;DHT22;11219;51.486;6.950;2022-08-11T10:50:55;32.20;32.80
22106;DHT22;11219;51.486;6.950;2022-08-11T10:53:44;32.40;33.10
22106;DHT22;11219;51.486;6.950;2022-08-11T10:56:32;32.50;33.10
22106;DHT22;11219;51.486;6.950;2022-08-11T10:59:20;32.60;33.10
22106;DHT22;11219;51.486;6.950;2022-08-11T11:01:48;32.70;32.90
22106;DHT22;11219;51.486;6.950;2022-08-11T11:04:17;32.80;33.00
22106;DHT22;11219;51.486;6.950;2022-08-11T11:06:49;32.80;33.00
22106;DHT22;11219;51.486;6.950;2022-08-11T11:09:19;32.80;32.90
22106;DHT22;11219;51.486;6.950;2022-08-11T11:11:49;32.90;32.90
22106;DHT22;11219;51.486;6.950;2022-08-11T11:14:35;32.90;32.60
22106;DHT22;11219;51.486;6.950;2022-08-11T11:17:27;33.00;32.50
22106;DHT22;11219;51.486;6.950;2022-08-11T11:20:15;32.90;32.50
22106;DHT22;11219;51.486;6.950;2022-08-11T11:22:43;32.90;32.60
22106;DHT22;11219;51.486;6.950;2022-08-11T11:25:28;32.80;32.60
22106;DHT22;11219;51.486;6.950;2022-08-11T11:28:15;32.80;32.60
22106;DHT22;11219;51.486;6.950;2022-08-11T11:30:55;33.00;32.70
22106;DHT22;11219;51.486;6.950;2022-08-11T11:33:38;33.00;32.70
22106;DHT22;11219;51.486;6.950;2022-08-11T11:36:11;33.00;32.60
22106;DHT22;11219;51.486;6.950;2022-08-11T11:38:40;33.10;32.40
22106;DHT22;11219;51.486;6.950;2022-08-11T11:41:08;33.10;32.40
22106;DHT22;11219;51.486;6.950;2022-08-11T11:43:51;33.40;32.50
22106;DHT22;11219;51.486;6.950;2022-08-11T11:46:21;33.20;32.50
22106;DHT22;11219;51.486;6.950;2022-08-11T11:48:52;33.20;32.70
22106;DHT22;11219;51.486;6.950;2022-08-11T11:51:20;33.30;32.50
22106;DHT22;11219;51.486;6.950;2022-08-11T11:53:48;33.40;32.40
22106;DHT22;11219;51.486;6.950;2022-08-11T11:56:15;33.40;32.20
22106;DHT22;11219;51.486;6.950;2022-08-11T11:58:43;33.50;32.00
22106;DHT22;11219;51.486;6.950;2022-08-11T12:01:43;33.50;31.90
22106;DHT22;11219;51.486;6.950;2022-08-11T12:04:13;33.60;32.00
22106;DHT22;11219;51.486;6.950;2022-08-11T12:06:43;33.80;32.00
22106;DHT22;11219;51.486;6.950;2022-08-11T12:09:11;33.90;31.90
22106;DHT22;11219;51.486;6.950;2022-08-11T12:11:45;33.90;31.80
22106;DHT22;11219;51.486;6.950;2022-08-11T12:14:29;33.80;31.90
22106;DHT22;11219;51.486;6.950;2022-08-11T12:16:58;33.80;31.80
22106;DHT22;11219;51.486;6.950;2022-08-11T12:19:26;33.80;31.80
22106;DHT22;11219;51.486;6.950;2022-08-11T12:21:55;33.90;32.20
22106;DHT22;11219;51.486;6.950;2022-08-11T12:24:40;33.90;31.80
22106;DHT22;11219;51.486;6.950;2022-08-11T12:27:26;33.90;31.90
22106;DHT22;11219;51.486;6.950;2022-08-11T12:29:55;34.00;32.10
22106;DHT22;11219;51.486;6.950;2022-08-11T12:32:25;34.10;31.90
22106;DHT22;11219;51.486;6.950;2022-08-11T12:34:53;34.30;32.00
22106;DHT22;11219;51.486;6.950;2022-08-11T12:37:26;34.10;31.80
22106;DHT22;11219;51.486;6.950;2022-08-11T12:39:59;34.10;32.00
22106;DHT22;11219;51.486;6.950;2022-08-11T12:42:44;34.20;31.80
22106;DHT22;11219;51.486;6.950;2022-08-11T12:45:30;34.30;31.90
22106;DHT22;11219;51.486;6.950;2022-08-11T12:48:03;34.30;31.80
22106;DHT22;11219;51.486;6.950;2022-08-11T12:50:53;34.30;31.70
22106;DHT22;11219;51.486;6.950;2022-08-11T12:53:44;34.30;31.50
22106;DHT22;11219;51.486;6.950;2022-08-11T12:56:12;34.30;31.60
22106;DHT22;11219;51.486;6.950;2022-08-11T12:58:58;34.20;31.70
22106;DHT22;11219;51.486;6.950;2022-08-11T13:01:44;34.30;31.50
22106;DHT22;11219;51.486;6.950;2022-08-11T13:04:30;34.40;31.50
22106;DHT22;11219;51.486;6.950;2022-08-11T13:07:15;34.50;31.10
22106;DHT22;11219;51.486;6.950;2022-08-11T13:09:44;34.60;31.10
22106;DHT22;11219;51.486;6.950;2022-08-11T13:12:12;34.70;31.20
22106;DHT22;11219;51.486;6.950;2022-08-11T13:14:58;34.80;31.10
22106;DHT22;11219;51.486;6.950;2022-08-11T13:17:26;34.90;30.70
22106;DHT22;11219;51.486;6.950;2022-08-11T13:19:57;34.90;30.70
22106;DHT22;11219;51.486;6.950;2022-08-11T13:22:25;35.00;30.60
22106;DHT22;11219;51.486;6.950;2022-08-11T13:24:52;35.10;30.50
22106;DHT22;11219;51.486;6.950;2022-08-11T13:27:21;35.10;30.20
22106;DHT22;11219;51.486;6.950;2022-08-11T13:29:49;35.10;30.20
22106;DHT22;11219;51.486;6.950;2022-08-11T13:32:38;35.20;30.50
22106;DHT22;11219;51.486;6.950;2022-08-11T13:35:07;35.10;30.40
22106;DHT22;11219;51.486;6.950;2022-08-11T13:37:35;35.20;30.10
22106;DHT22;11219;51.486;6.950;2022-08-11T13:40:03;35.30;30.40
22106;DHT22;11219;51.486;6.950;2022-08-11T13:42:30;35.40;30.30
22106;DHT22;11219;51.486;6.950;2022-08-11T13:44:58;35.30;30.00
22106;DHT22;11219;51.486;6.950;2022-08-11T13:47:26;35.40;30.00
22106;DHT22;11219;51.486;6.950;2022-08-11T13:49:53;35.50;30.10
22106;DHT22;11219;51.486;6.950;2022-08-11T13:52:23;35.80;30.30
22106;DHT22;11219;51.486;6.950;2022-08-11T13:54:52;35.90;30.20
22106;DHT22;11219;51.486;6.950;2022-08-11T13:57:19;36.10;30.00
22106;DHT22;11219;51.486;6.950;2022-08-11T13:59:51;36.10;29.50
22106;DHT22;11219;51.486;6.950;2022-08-11T14:02:23;36.00;29.60
22106;DHT22;11219;51.486;6.950;2022-08-11T14:04:56;36.10;29.80
22106;DHT22;11219;51.486;6.950;2022-08-11T14:07:29;36.20;29.80
22106;DHT22;11219;51.486;6.950;2022-08-11T14:10:00;36.40;30.20
22106;DHT22;11219;51.486;6.950;2022-08-11T14:12:31;36.30;29.60
22106;DHT22;11219;51.486;6.950;2022-08-11T14:15:19;36.30;29.70
22106;DHT22;11219;51.486;6.950;2022-08-11T14:17:52;36.40;29.60
22106;DHT22;11219;51.486;6.950;2022-08-11T14:20:21;36.20;29.70
22106;DHT22;11219;51.486;6.950;2022-08-11T14:22:51;36.20;29.80
22106;DHT22;11219;51.486;6.950;2022-08-11T14:25:17;36.30;29.70
22106;DHT22;11219;51.486;6.950;2022-08-11T14:27:44;36.30;29.50
22106;DHT22;11219;51.486;6.950;2022-08-11T14:30:14;36.30;29.40
22106;DHT22;11219;51.486;6.950;2022-08-11T14:32:56;36.30;29.50
22106;DHT22;11219;51.486;6.950;2022-08-11T14:35:24;36.40;29.50
22106;DHT22;11219;51.486;6.950;2022-08-11T14:37:54;36.50;29.40
22106;DHT22;11219;51.486;6.950;2022-08-11T14:40:23;36.60;29.10
22106;DHT22;11219;51.486;6.950;2022-08-11T14:43:08;36.40;29.00
22106;DHT22;11219;51.486;6.950;2022-08-11T14:45:55;36.30;29.10
22106;DHT22;11219;51.486;6.950;2022-08-11T14:48:41;36.30;29.20
22106;DHT22;11219;51.486;6.950;2022-08-11T14:51:08;36.30;29.00
22106;DHT22;11219;51.486;6.950;2022-08-11T14:53:36;36.30;29.20
22106;DHT22;11219;51.486;6.950;2022-08-11T14:56:04;36.50;28.70
22106;DHT22;11219;51.486;6.950;2022-08-11T14:58:49;36.50;29.00
22106;DHT22;11219;51.486;6.950;2022-08-11T15:01:17;36.50;28.70
22106;DHT22;11219;51.486;6.950;2022-08-11T15:04:02;36.70;28.90
22106;DHT22;11219;51.486;6.950;2022-08-11T15:06:29;36.70;28.50
22106;DHT22;11219;51.486;6.950;2022-08-11T15:08:59;36.60;28.30
22106;DHT22;11219;51.486;6.950;2022-08-11T15:11:29;36.70;28.50
22106;DHT22;11219;51.486;6.950;2022-08-11T15:14:15;36.80;28.50
22106;DHT22;11219;51.486;6.950;2022-08-11T15:17:04;36.90;28.50
22106;DHT22;11219;51.486;6.950;2022-08-11T15:19:34;37.10;28.50
22106;DHT22;11219;51.486;6.950;2022-08-11T15:22:02;37.20;28.30
22106;DHT22;11219;51.486;6.950;2022-08-11T15:24:47;37.20;28.10
22106;DHT22;11219;51.486;6.950;2022-08-11T15:27:18;37.40;28.40
22106;DHT22;11219;51.486;6.950;2022-08-11T15:30:04;37.30;28.10
22106;DHT22;11219;51.486;6.950;2022-08-11T15:32:50;37.20;28.20
22106;DHT22;11219;51.486;6.950;2022-08-11T15:35:35;37.30;28.10
22106;DHT22;11219;51.486;6.950;2022-08-11T15:38:22;37.30;27.80
22106;DHT22;11219;51.486;6.950;2022-08-11T15:40:53;37.20;27.60
22106;DHT22;11219;51.486;6.950;2022-08-11T15:43:42;37.10;27.50
22106;DHT22;11219;51.486;6.950;2022-08-11T15:46:40;36.90;27.50
22106;DHT22;11219;51.486;6.950;2022-08-11T15:49:10;36.80;27.50
22106;DHT22;11219;51.486;6.950;2022-08-11T15:51:44;36.70;27.60
22106;DHT22;11219;51.486;6.950;2022-08-11T15:54:16;36.80;27.60
22106;DHT22;11219;51.486;6.950;2022-08-11T15:56:48;37.00;27.70
22106;DHT22;11219;51.486;6.950;2022-08-11T15:59:18;36.90;27.60
22106;DHT22;11219;51.486;6.950;2022-08-11T16:02:04;36.80;27.50
22106;DHT22;11219;51.486;6.950;2022-08-11T16:04:52;36.70;27.50
22106;DHT22;11219;51.486;6.950;2022-08-11T16:07:22;36.70;27.40
22106;DHT22;11219;51.486;6.950;2022-08-11T16:09:54;36.70;27.70
22106;DHT22;11219;51.486;6.950;2022-08-11T16:12:26;36.80;27.60
22106;DHT22;11219;51.486;6.950;2022-08-11T16:14:57;36.80;27.60
22106;DHT22;11219;51.486;6.950;2022-08-11T16:17:44;36.80;27.60
22106;DHT22;11219;51.486;6.950;2022-08-11T16:20:13;36.80;27.70
22106;DHT22;11219;51.486;6.950;2022-08-11T16:22:41;36.90;27.80
22106;DHT22;11219;51.486;6.950;2022-08-11T16:25:10;37.00;27.80
22106;DHT22;11219;51.486;6.950;2022-08-11T16:27:41;37.10;27.70
22106;DHT22;11219;51.486;6.950;2022-08-11T16:30:09;37.30;27.70
22106;DHT22;11219;51.486;6.950;2022-08-11T16:32:42;37.10;27.60
22106;DHT22;11219;51.486;6.950;2022-08-11T16:35:13;37.00;27.40
22106;DHT22;11219;51.486;6.950;2022-08-11T16:38:00;36.80;27.50
22106;DHT22;11219;51.486;6.950;2022-08-11T16:40:46;36.60;27.60
22106;DHT22;11219;51.486;6.950;2022-08-11T16:43:17;36.50;27.60
22106;DHT22;11219;51.486;6.950;2022-08-11T16:46:05;36.60;27.70
22106;DHT22;11219;51.486;6.950;2022-08-11T16:48:51;36.60;27.60
22106;DHT22;11219;51.486;6.950;2022-08-11T16:51:19;36.50;27.20
22106;DHT22;11219;51.486;6.950;2022-08-11T16:53:48;36.50;27.40
22106;DHT22;11219;51.486;6.950;2022-08-11T16:56:19;36.20;27.50
22106;DHT22;11219;51.486;6.950;2022-08-11T16:58:52;36.20;27.60
22106;DHT22;11219;51.486;6.950;2022-08-11T17:01:37;36.10;27.60
22106;DHT22;11219;51.486;6.950;2022-08-11T17:04:08;36.00;27.70
22106;DHT22;11219;51.486;6.950;2022-08-11T17:06:53;36.10;27.80
22106;DHT22;11219;51.486;6.950;2022-08-11T17:09:38;36.20;27.70
22106;DHT22;11219;51.486;6.950;2022-08-11T17:12:25;36.10;27.50
22106;DHT22;11219;51.486;6.950;2022-08-11T17:15:14;35.90;27.70
22106;DHT22;11219;51.486;6.950;2022-08-11T17:18:02;35.90;27.90
22106;DHT22;11219;51.486;6.950;2022-08-11T17:20:31;35.90;27.80
22106;DHT22;11219;51.486;6.950;2022-08-11T17:22:59;35.70;27.80
22106;DHT22;11219;51.486;6.950;2022-08-11T17:25:47;35.70;28.00
22106;DHT22;11219;51.486;6.950;2022-08-11T17:28:16;35.60;28.10
22106;DHT22;11219;51.486;6.950;2022-08-11T17:30:46;35.50;28.10
22106;DHT22;11219;51.486;6.950;2022-08-11T17:33:43;35.40;28.10
22106;DHT22;11219;51.486;6.950;2022-08-11T17:36:27;35.20;28.20
22106;DHT22;11219;51.486;6.950;2022-08-11T17:38:55;35.50;28.60
22106;DHT22;11219;51.486;6.950;2022-08-11T17:41:22;35.00;28.40
22106;DHT22;11219;51.486;6.950;2022-08-11T17:44:07;34.90;28.50
22106;DHT22;11219;51.486;6.950;2022-08-11T17:46:53;34.70;28.50
22106;DHT22;11219;51.486;6.950;2022-08-11T17:49:37;34.50;28.70
22106;DHT22;11219;51.486;6.950;2022-08-11T17:52:06;34.20;29.00
22106;DHT22;11219;51.486;6.950;2022-08-11T17:54:52;33.90;29.10
22106;DHT22;11219;51.486;6.950;2022-08-11T17:57:38;33.60;29.20
22106;DHT22;11219;51.486;6.950;2022-08-11T18:00:24;33.30;29.30
22106;DHT22;11219;51.486;6.950;2022-08-11T18:02:53;33.00;29.70
22106;DHT22;11219;51.486;6.950;2022-08-11T18:05:41;32.80;30.00
22106;DHT22;11219;51.486;6.950;2022-08-11T18:08:11;32.50;30.00
22106;DHT22;11219;51.486;6.950;2022-08-11T18:10:57;32.30;30.70
22106;DHT22;11219;51.486;6.950;2022-08-11T18:13:43;32.20;30.30
22106;DHT22;11219;51.486;6.950;2022-08-11T18:16:28;31.90;30.40
22106;DHT22;11219;51.486;6.950;2022-08-11T18:19:14;31.70;30.50
22106;DHT22;11219;51.486;6.950;2022-08-11T18:22:02;31.50;30.70
22106;DHT22;11219;51.486;6.950;2022-08-11T18:24:51;31.40;31.00
22106;DHT22;11219;51.486;6.950;2022-08-11T18:27:41;31.20;31.20
22106;DHT22;11219;51.486;6.950;2022-08-11T18:30:27;31.20;31.50
22106;DHT22;11219;51.486;6.950;2022-08-11T18:33:15;30.90;31.50
22106;DHT22;11219;51.486;6.950;2022-08-11T18:36:03;30.70;31.80
22106;DHT22;11219;51.486;6.950;2022-08-11T18:38:48;30.60;32.10
22106;DHT22;11219;51.486;6.950;2022-08-11T18:41:35;30.40;32.30
22106;DHT22;11219;51.486;6.950;2022-08-11T18:44:24;30.40;32.50
22106;DHT22;11219;51.486;6.950;2022-08-11T18:47:10;30.30;32.70
22106;DHT22;11219;51.486;6.950;2022-08-11T18:49:58;30.20;32.80
22106;DHT22;11219;51.486;6.950;2022-08-11T18:52:47;30.10;33.10
22106;DHT22;11219;51.486;6.950;2022-08-11T18:55:34;28.90;32.60
22106;DHT22;11219;51.486;6.950;2022-08-11T18:58:22;30.00;33.40